• Join FlightAware (Why Join?)
  • Login
  • US Flag 
09:43PM EDT


 

Airport Tracker/Info


-or-


 

Live Flight TrackerFlight Track Log ✈ NKS562 ✈ 06-May-2013 ✈ KLAS - KDEN

Flight Track Log - Related Links

Times and Time Zones

All times are in EDT time to prevent confusion due to time zone crossing. See the NKS562 flight status page for this flight to view local times or setup timezone preferences in your user account.

Time Position Orientation Groundspeed Altitude Reporting Facility
EDT Latitude Longitude Course Direction KTS MPH feet Rate Location/Type
11:28AM 36.0770 -115.1580 270° West 164 189 2,700  Level FlightAware
11:28AM 36.0780 -115.1870 272° West 166 191 3,900 1,980 Climbing FlightAware
11:29AM 36.0790 -115.2180 272° West 199 229 4,700 1,800 Climbing FlightAware
11:29AM 36.0790 -115.2510 270° West 229 264 5,600 2,580 Climbing FlightAware
11:30AM 36.0950 -115.2850 300° West 259 298 7,100 3,060 Climbing FlightAware
11:30AM 36.1100 -115.2910 342° North 258 297 7,900 3,060 Climbing FlightAware
11:30AM 36.1330 -115.2950 352° North 262 302 8,900 3,300 Climbing FlightAware
11:31AM 36.1570 -115.2830 22° Northeast 265 305 10,100 3,600 Climbing FlightAware
11:31AM 36.1700 -115.2650 48° Northeast 265 305 11,000 3,180 Climbing FlightAware
11:31AM 36.1780 -115.2460 62° Northeast 265 305 11,700 1,800 Climbing FlightAware
11:32AM 36.1960 -115.1820 71° East 316 364 12,700 1,320 Climbing FlightAware
11:33AM 36.1970 -115.1060 89° East 357 411 13,500 1,860 Climbing FlightAware
11:33AM 36.1980 -115.0080 89° East 380 437 15,400 2,580 Climbing FlightAware
11:34AM 36.1990 -114.9200 89° East 388 447 17,200 2,400 Climbing FlightAware
11:35AM 36.2000 -114.8220 89° East 402 463 18,800 2,220 Climbing FlightAware
11:35AM 36.2000 -114.7290 90° East 408 470 20,400 2,220 Climbing FlightAware
11:36AM 36.1990 -114.6350 91° East 415 478 21,800 2,100 Climbing FlightAware
11:37AM 36.1970 -114.5240 91° East 423 487 23,400 2,100 Climbing FlightAware
11:38AM 36.1960 -114.4260 91° East 426 490 24,800 1,860 Climbing FlightAware
11:38AM 36.1950 -114.3190 91° East 435 501 26,100 1,680 Climbing FlightAware
11:39AM 36.2010 -114.1820 87° East 446 513 27,600 1,620 Climbing FlightAware
11:40AM 36.2150 -114.0660 81° East 451 519 28,800 1,320 Climbing FlightAware
11:41AM 36.2270 -113.9630 82° East 462 532 29,500 1,020 Climbing FlightAware
11:41AM 36.2410 -113.8460 82° East 473 544 30,300 1,020 Climbing FlightAware
11:42AM 36.2540 -113.7320 82° East 482 555 31,000 1,200 Climbing FlightAware
11:43AM 36.2670 -113.6240 81° East 482 555 31,900 1,320 Climbing FlightAware
11:43AM 36.2810 -113.5030 82° East 484 557 32,900 1,440 Climbing FlightAware
11:44AM 36.2930 -113.3950 82° East 478 550 34,000 1,380 Climbing FlightAware
11:45AM 36.3070 -113.2690 82° East 479 551 34,900 1,320 Climbing FlightAware
11:46AM 36.3320 -113.1710 72° East 475 547 35,900 1,200 Climbing FlightAware
11:46AM 36.3690 -113.0720 65° Northeast 477 549 36,500 720 Climbing FlightAware
11:47AM 36.4130 -112.9550 65° Northeast 482 555 37,000 360 Climbing FlightAware
11:48AM 36.4460 -112.8650 65° Northeast 481 554 37,000  Level FlightAware
11:48AM 36.4920 -112.7410 65° Northeast 486 559 37,000  Level FlightAware
11:49AM 36.5270 -112.6440 66° East 480 552 37,000  Level FlightAware
11:50AM 36.5590 -112.5570 65° Northeast 476 548 37,000 -120 Level FlightAware
11:50AM 36.6050 -112.4300 66° East 472 543 36,900  Descending FlightAware
11:51AM 36.6410 -112.3320 65° Northeast 469 540 37,000  Climbing FlightAware
11:52AM 36.6810 -112.2200 66° East 468 539 36,900  Descending FlightAware
11:53AM 36.7170 -112.1210 66° East 468 539 37,000 60 Climbing FlightAware
11:53AM 36.7560 -112.0130 66° East 467 537 37,000  Level FlightAware
11:54AM 36.7910 -111.9160 66° East 465 535 37,000  Level FlightAware
11:55AM 36.8260 -111.8190 66° East 462 532 37,000 -120 Level FlightAware
11:55AM 36.8660 -111.7080 66° East 465 535 36,900  Descending FlightAware
11:56AM 36.9000 -111.6110 66° East 466 536 37,000 60 Climbing FlightAware
11:57AM 36.9360 -111.5090 66° East 466 536 37,000  Level FlightAware
11:57AM 36.9750 -111.3980 66° East 468 539 37,000 60 Level FlightAware
11:58AM 37.0100 -111.2980 66° East 466 536 37,100  Climbing FlightAware
11:59AM 37.0480 -111.1900 66° East 465 535 37,000 -120 Descending FlightAware
12:00PM 37.0830 -111.0910 66° East 463 533 37,000  Level FlightAware
12:00PM 37.1200 -110.9820 67° East 461 531 37,000  Level FlightAware
12:01PM 37.1550 -110.8830 66° East 459 528 37,000  Level FlightAware
12:02PM 37.1830 -110.8030 66° East 459 528 37,000  Level FlightAware
12:02PM 37.2130 -110.7200 66° East 459 528 37,000  Level FlightAware
12:03PM 37.2490 -110.6170 66° East 459 528 37,000  Level FlightAware
12:04PM 37.2790 -110.5340 66° East 459 528 37,000  Level FlightAware
12:04PM 37.3080 -110.4510 66° East 459 528 37,000  Level FlightAware
12:05PM 37.3370 -110.3680 66° East 459 528 37,000  Level FlightAware
12:06PM 37.3740 -110.2640 66° East 459 528 37,000  Level FlightAware
12:07PM 37.4030 -110.1810 66° East 459 528 37,000  Level FlightAware
12:07PM 37.4690 -109.9630 69° East 465 535 37,000  Level FlightAware
12:08PM 37.5050 -109.8560 67° East 464 534 37,000  Level FlightAware
12:09PM 37.5500 -109.7220 67° East 464 534 37,000  Level FlightAware
12:10PM 37.5770 -109.6380 68° East 466 536 37,000  Level FlightAware
12:10PM 37.6220 -109.5020 67° East 468 539 37,000  Level FlightAware
12:11PM 37.6470 -109.4260 67° East 470 541 37,000  Level FlightAware
12:12PM 37.6850 -109.3100 67° East 473 544 37,000  Level FlightAware
12:12PM 37.7230 -109.1950 67° East 474 545 37,000  Level FlightAware
12:13PM 37.7560 -109.0930 68° East 473 544 37,000  Level FlightAware
12:14PM 37.7880 -108.8570 80° East 468 539 37,000  Level FlightAware
12:15PM 37.7820 -108.7580 94° East 468 539 37,000  Level FlightAware
12:16PM 37.7780 -108.6560 93° East 467 537 37,000  Level FlightAware
12:16PM 37.7840 -108.6070 81° East 473 544 37,000  Level FlightAware
12:17PM 37.8180 -108.5210 63° Northeast 474 545 37,000  Level FlightAware
12:17PM 37.8620 -108.4440 54° Northeast 471 542 37,000  Level FlightAware
12:18PM 37.8800 -108.4110 55° Northeast 467 537 37,000 -120 Level FlightAware
12:19PM 37.9770 -108.2390 54° Northeast 467 537 36,900  Descending FlightAware
12:20PM 38.0650 -108.0830 54° Northeast 467 537 37,000  Climbing FlightAware
12:20PM 38.1120 -107.9980 55° Northeast 469 540 37,000  Level FlightAware
12:22PM 38.2200 -107.8040 55° Northeast 471 542 37,000  Level FlightAware
12:23PM 38.2870 -107.6840 55° Northeast 458 527 37,000 -120 Level FlightAware
12:24PM 38.3460 -107.5780 55° Northeast 460 529 36,800 -660 Descending FlightAware
12:25PM 38.4100 -107.4620 55° Northeast 453 521 35,900 -1,020 Descending FlightAware
12:25PM 38.4620 -107.3670 55° Northeast 457 526 35,200 -600 Descending FlightAware
12:26PM 38.5280 -107.2470 55° Northeast 464 534 35,000 -120 Descending FlightAware
12:27PM 38.5790 -107.1530 55° Northeast 463 533 35,000  Level FlightAware
12:27PM 38.5920 -107.1290 55° Northeast 464 534 35,000  Level FlightAware ADS-B
12:28PM 38.6300 -107.0600 55° Northeast 464 534 35,000 -240 Level FlightAware
12:28PM 38.6840 -106.9590 56° Northeast 464 534 34,700 -720 Descending FlightAware
12:29PM 38.7280 -106.8770 55° Northeast 462 532 34,100 -1,080 Descending FlightAware
12:30PM 38.7780 -106.7840 55° Northeast 455 524 33,400 -1,140 Descending FlightAware
12:30PM 38.8000 -106.7440 55° Northeast 447 514 33,100 -1,080 Descending FlightAware ADS-B
12:30PM 38.8353 -106.6780 56° Northeast 434 499 32,600 -1,020 Descending FlightAware ADS-B
12:31PM 38.8706 -106.6130 55° Northeast 429 494 32,100 -1,140 Descending FlightAware ADS-B
12:31PM 38.9042 -106.5500 56° Northeast 425 489 31,500 -1,020 Descending FlightAware ADS-B
12:32PM 38.9377 -106.4870 56° Northeast 422 486 31,100 -960 Descending FlightAware ADS-B
12:32PM 38.9674 -106.4290 57° Northeast 452 520 30,600 -1,020 Descending FlightAware ADS-B
12:33PM 39.0010 -106.3540 60° Northeast 454 522 30,100 -1,020 Descending FlightAware ADS-B
12:33PM 39.0329 -106.2820 60° Northeast 454 522 29,600 -1,500 Descending FlightAware ADS-B
12:34PM 39.0668 -106.2080 59° Northeast 449 517 28,600 -1,920 Descending FlightAware ADS-B
12:34PM 39.0994 -106.1370 59° Northeast 441 507 27,600 -2,040 Descending FlightAware ADS-B
12:35PM 39.1301 -106.0700 59° Northeast 435 501 26,500 -2,220 Descending FlightAware ADS-B
12:35PM 39.1611 -106.0020 60° Northeast 428 493 25,400 -2,100 Descending FlightAware ADS-B
12:36PM 39.1915 -105.9340 60° Northeast 422 486 24,400 -1,980 Descending FlightAware ADS-B
12:36PM 39.2206 -105.8700 60° Northeast 415 478 23,400 -1,980 Descending FlightAware ADS-B
12:37PM 39.2502 -105.8050 60° Northeast 407 468 22,400 -1,980 Descending FlightAware ADS-B
12:37PM 39.2789 -105.7410 60° Northeast 400 460 21,400 -1,980 Descending FlightAware ADS-B
12:38PM 39.3070 -105.6790 60° Northeast 392 451 20,400 -1,920 Descending FlightAware ADS-B
12:38PM 39.3343 -105.6180 60° Northeast 385 443 19,500 -1,620 Descending FlightAware ADS-B
12:39PM 39.3607 -105.5590 60° Northeast 372 428 18,800 -1,200 Descending FlightAware ADS-B
12:39PM 39.3864 -105.5020 60° Northeast 352 405 18,300 -840 Descending FlightAware ADS-B
12:40PM 39.3907 -105.4920 61° Northeast 342 394 18,300 -600 Level FlightAware ADS-B
12:40PM 39.3935 -105.4830 68° East 336 387 18,200 -1,380 Descending FlightAware ADS-B
12:40PM 39.3954 -105.4750 73° East 333 383 18,100 -1,380 Descending FlightAware ADS-B
12:40PM 39.3966 -105.4650 81° East 332 382 18,000 -1,200 Descending FlightAware ADS-B
12:40PM 39.3988 -105.4060 87° East 328 377 17,400 -1,320 Descending FlightAware ADS-B
12:41PM 39.4011 -105.3460 87° East 325 374 16,700 -1,320 Descending FlightAware ADS-B
12:41PM 39.4036 -105.2890 87° East 315 362 16,100 -1,380 Descending FlightAware ADS-B
12:42PM 39.4059 -105.2340 87° East 307 353 15,300 -1,500 Descending FlightAware ADS-B
12:42PM 39.4086 -105.1760 87° East 301 346 14,600 -1,380 Descending FlightAware ADS-B
12:43PM 39.4112 -105.1230 86° East 290 334 13,900 -1,080 Descending FlightAware ADS-B
12:43PM 39.4137 -105.0680 87° East 276 318 13,500 -660 Descending FlightAware ADS-B
12:44PM 39.4149 -105.0470 86° East 266 306 13,400 -540 Descending FlightAware ADS-B
12:44PM 39.4183 -105.0310 75° East 263 303 13,300 -600 Descending FlightAware ADS-B
12:44PM 39.4312 -104.9880 69° East 256 295 13,000 -420 Descending FlightAware ADS-B
12:45PM 39.4449 -104.9440 68° East 252 290 12,900 -900 Descending FlightAware ADS-B
12:45PM 39.4593 -104.8980 68° East 259 298 12,100 -1,620 Descending FlightAware ADS-B
12:46PM 39.4734 -104.8530 68° East 253 291 11,200 -1,740 Descending FlightAware ADS-B
12:46PM 39.4869 -104.8090 68° East 253 291 10,300 -1,680 Descending FlightAware ADS-B
12:47PM 39.4938 -104.7870 68° East 258 297 9,900 -780 Descending FlightAware ADS-B
12:47PM 39.5061 -104.7670 51° Northeast 252 290 9,900  Level FlightAware ADS-B
12:47PM 39.5118 -104.7630 28° Northeast 252 290 9,900  Level FlightAware ADS-B
12:47PM 39.5277 -104.7510 30° Northeast 249 287 9,900 -240 Level FlightAware ADS-B
12:48PM 39.5449 -104.7380 30° Northeast 248 285 9,800 -780 Descending FlightAware ADS-B
12:48PM 39.5606 -104.7270 28° Northeast 247 284 9,500 -1,020 Descending FlightAware ADS-B
12:48PM 39.5759 -104.7160 29° Northeast 245 282 9,300 -720 Descending FlightAware ADS-B
12:48PM 39.5936 -104.7030 30° Northeast 237 273 9,100 -720 Descending FlightAware ADS-B
12:49PM 39.6085 -104.6920 30° Northeast 229 264 8,900 -420 Descending FlightAware ADS-B
12:49PM 39.6241 -104.6800 31° Northeast 221 254 8,900 -180 Level FlightAware ADS-B
12:49PM 39.6453 -104.6660 27° Northeast 219 252 8,800 -360 Descending FlightAware ADS-B
12:50PM 39.6555 -104.6640 North 220 253 8,700 -1,020 Descending FlightAware ADS-B
12:50PM 39.6642 -104.6630 North 220 253 8,500 -1,200 Descending FlightAware ADS-B
12:50PM 39.6772 -104.6620 North 222 255 8,300 -1,260 Descending FlightAware ADS-B
12:50PM 39.6932 -104.6620 360° North 222 255 7,900 -1,320 Descending FlightAware ADS-B
12:50PM 39.7112 -104.6620 360° North 221 254 7,600 -1,080 Descending FlightAware ADS-B
12:51PM 39.7228 -104.6620 360° North 218 251 7,400 -1,380 Descending FlightAware ADS-B
12:51PM 39.7386 -104.6620 360° North 217 250 7,000 -1,200 Descending FlightAware ADS-B
12:51PM 39.7536 -104.6610 North 201 231 6,800 -960 Descending FlightAware ADS-B
12:51PM 39.7677 -104.6610 360° North 189 217 6,500 -1,020 Descending FlightAware ADS-B
12:52PM 39.7803 -104.6610 360° North 177 204 6,300 -1,020 Descending FlightAware ADS-B
12:52PM 39.7921 -104.6610 360° North 152 175 6,000 -1,140 Descending FlightAware ADS-B
12:52PM 39.7966 -104.6610 360° North 149 171 5,900 -780 Descending FlightAware ADS-B
12:52PM 39.8031 -104.6610 360° North 144 166 5,800 -720 Descending FlightAware ADS-B
12:52PM 39.8134 -104.6610 360° North 145 167 5,600 -660 Descending FlightAware ADS-B
12:53PM 39.8218 -104.6610 360° North 142 163 5,500 -480 Descending FlightAware ADS-B